sensor_id;sensor_type;location;lat;lon;timestamp;P1;durP1;ratioP1;P2;durP2;ratioP2
24173;SDS011;12324;48.146;11.502;2022-09-13T00:00:40;8.07;;;3.95;;
24173;SDS011;12324;48.146;11.502;2022-09-13T00:03:07;5.90;;;3.15;;
24173;SDS011;12324;48.146;11.502;2022-09-13T00:05:36;5.90;;;3.10;;
24173;SDS011;12324;48.146;11.502;2022-09-13T00:08:03;7.47;;;3.42;;
24173;SDS011;12324;48.146;11.502;2022-09-13T00:10:42;6.53;;;3.08;;
24173;SDS011;12324;48.146;11.502;2022-09-13T00:13:10;5.47;;;3.08;;
24173;SDS011;12324;48.146;11.502;2022-09-13T00:15:42;6.32;;;3.15;;
24173;SDS011;12324;48.146;11.502;2022-09-13T00:18:10;4.82;;;2.72;;
24173;SDS011;12324;48.146;11.502;2022-09-13T00:20:37;5.43;;;3.17;;
24173;SDS011;12324;48.146;11.502;2022-09-13T00:23:04;7.13;;;3.30;;
24173;SDS011;12324;48.146;11.502;2022-09-13T00:25:30;5.60;;;3.08;;
24173;SDS011;12324;48.146;11.502;2022-09-13T00:27:57;5.20;;;2.75;;
24173;SDS011;12324;48.146;11.502;2022-09-13T00:30:24;4.93;;;3.03;;
24173;SDS011;12324;48.146;11.502;2022-09-13T00:32:50;6.70;;;2.80;;
24173;SDS011;12324;48.146;11.502;2022-09-13T00:35:17;7.22;;;2.80;;
24173;SDS011;12324;48.146;11.502;2022-09-13T00:37:43;6.00;;;3.20;;
24173;SDS011;12324;48.146;11.502;2022-09-13T00:40:10;5.88;;;3.10;;
24173;SDS011;12324;48.146;11.502;2022-09-13T00:42:37;8.32;;;3.05;;
24173;SDS011;12324;48.146;11.502;2022-09-13T00:52:55;7.38;;;3.20;;
24173;SDS011;12324;48.146;11.502;2022-09-13T00:55:31;5.00;;;3.03;;
24173;SDS011;12324;48.146;11.502;2022-09-13T00:58:04;6.07;;;2.83;;
24173;SDS011;12324;48.146;11.502;2022-09-13T01:00:35;4.32;;;2.38;;
24173;SDS011;12324;48.146;11.502;2022-09-13T01:03:05;6.28;;;2.65;;
24173;SDS011;12324;48.146;11.502;2022-09-13T01:05:36;3.08;;;2.08;;
24173;SDS011;12324;48.146;11.502;2022-09-13T01:08:07;5.10;;;2.80;;
24173;SDS011;12324;48.146;11.502;2022-09-13T01:10:41;5.65;;;2.92;;
24173;SDS011;12324;48.146;11.502;2022-09-13T01:13:13;5.55;;;2.83;;
24173;SDS011;12324;48.146;11.502;2022-09-13T01:15:53;6.33;;;2.90;;
24173;SDS011;12324;48.146;11.502;2022-09-13T01:18:19;5.85;;;2.75;;
24173;SDS011;12324;48.146;11.502;2022-09-13T01:21:02;12.00;;;3.35;;
24173;SDS011;12324;48.146;11.502;2022-09-13T01:32:59;4.35;;;2.38;;
24173;SDS011;12324;48.146;11.502;2022-09-13T01:43:48;6.13;;;2.70;;
24173;SDS011;12324;48.146;11.502;2022-09-13T01:46:18;5.65;;;2.83;;
24173;SDS011;12324;48.146;11.502;2022-09-13T01:52:00;4.53;;;2.60;;
24173;SDS011;12324;48.146;11.502;2022-09-13T01:57:19;5.25;;;2.33;;
24173;SDS011;12324;48.146;11.502;2022-09-13T01:59:55;5.03;;;2.50;;
24173;SDS011;12324;48.146;11.502;2022-09-13T02:02:45;3.78;;;2.45;;
24173;SDS011;12324;48.146;11.502;2022-09-13T02:05:34;3.58;;;2.17;;
24173;SDS011;12324;48.146;11.502;2022-09-13T02:08:07;5.47;;;2.58;;
24173;SDS011;12324;48.146;11.502;2022-09-13T02:10:43;4.38;;;2.25;;
24173;SDS011;12324;48.146;11.502;2022-09-13T02:13:14;4.68;;;2.65;;
24173;SDS011;12324;48.146;11.502;2022-09-13T02:15:50;6.68;;;2.70;;
24173;SDS011;12324;48.146;11.502;2022-09-13T02:18:27;4.97;;;2.40;;
24173;SDS011;12324;48.146;11.502;2022-09-13T02:21:00;6.25;;;2.40;;
24173;SDS011;12324;48.146;11.502;2022-09-13T02:23:40;5.78;;;2.85;;
24173;SDS011;12324;48.146;11.502;2022-09-13T02:26:15;6.82;;;2.20;;
24173;SDS011;12324;48.146;11.502;2022-09-13T02:28:46;5.53;;;2.40;;
24173;SDS011;12324;48.146;11.502;2022-09-13T02:31:17;3.80;;;2.20;;
24173;SDS011;12324;48.146;11.502;2022-09-13T02:33:53;5.78;;;2.50;;
24173;SDS011;12324;48.146;11.502;2022-09-13T02:36:25;4.15;;;2.50;;
24173;SDS011;12324;48.146;11.502;2022-09-13T02:38:58;7.25;;;2.55;;
24173;SDS011;12324;48.146;11.502;2022-09-13T02:43:56;6.00;;;2.22;;
24173;SDS011;12324;48.146;11.502;2022-09-13T02:46:45;5.70;;;2.35;;
24173;SDS011;12324;48.146;11.502;2022-09-13T02:51:52;3.58;;;2.38;;
24173;SDS011;12324;48.146;11.502;2022-09-13T02:54:37;7.00;;;2.97;;
24173;SDS011;12324;48.146;11.502;2022-09-13T02:57:35;3.63;;;2.33;;
24173;SDS011;12324;48.146;11.502;2022-09-13T03:00:06;5.47;;;2.53;;
24173;SDS011;12324;48.146;11.502;2022-09-13T03:02:33;3.55;;;2.50;;
24173;SDS011;12324;48.146;11.502;2022-09-13T03:05:03;4.90;;;2.22;;
24173;SDS011;12324;48.146;11.502;2022-09-13T03:07:30;5.03;;;2.45;;
24173;SDS011;12324;48.146;11.502;2022-09-13T03:09:58;3.55;;;2.33;;
24173;SDS011;12324;48.146;11.502;2022-09-13T03:21:27;3.72;;;2.20;;
24173;SDS011;12324;48.146;11.502;2022-09-13T03:32:05;5.38;;;2.63;;
24173;SDS011;12324;48.146;11.502;2022-09-13T03:38:00;3.00;;;2.20;;
24173;SDS011;12324;48.146;11.502;2022-09-13T03:40:41;3.70;;;2.42;;
24173;SDS011;12324;48.146;11.502;2022-09-13T03:43:22;3.92;;;2.30;;
24173;SDS011;12324;48.146;11.502;2022-09-13T03:45:56;6.43;;;2.75;;
24173;SDS011;12324;48.146;11.502;2022-09-13T03:48:26;4.35;;;2.40;;
24173;SDS011;12324;48.146;11.502;2022-09-13T03:50:54;3.42;;;2.13;;
24173;SDS011;12324;48.146;11.502;2022-09-13T03:53:25;6.82;;;2.60;;
24173;SDS011;12324;48.146;11.502;2022-09-13T03:55:54;4.10;;;2.08;;
24173;SDS011;12324;48.146;11.502;2022-09-13T03:58:21;6.22;;;2.38;;
24173;SDS011;12324;48.146;11.502;2022-09-13T04:00:48;3.28;;;2.35;;
24173;SDS011;12324;48.146;11.502;2022-09-13T04:03:15;4.47;;;2.15;;
24173;SDS011;12324;48.146;11.502;2022-09-13T04:05:42;5.25;;;2.10;;
24173;SDS011;12324;48.146;11.502;2022-09-13T04:08:08;4.30;;;2.22;;
24173;SDS011;12324;48.146;11.502;2022-09-13T04:10:35;4.97;;;2.33;;
24173;SDS011;12324;48.146;11.502;2022-09-13T04:13:02;3.17;;;1.98;;
24173;SDS011;12324;48.146;11.502;2022-09-13T04:15:30;3.80;;;2.53;;
24173;SDS011;12324;48.146;11.502;2022-09-13T04:17:56;4.60;;;2.30;;
24173;SDS011;12324;48.146;11.502;2022-09-13T04:20:23;3.47;;;2.42;;
24173;SDS011;12324;48.146;11.502;2022-09-13T04:22:54;3.22;;;1.70;;
24173;SDS011;12324;48.146;11.502;2022-09-13T04:25:23;3.80;;;2.28;;
24173;SDS011;12324;48.146;11.502;2022-09-13T04:27:53;4.60;;;2.00;;
24173;SDS011;12324;48.146;11.502;2022-09-13T04:30:21;3.83;;;2.33;;
24173;SDS011;12324;48.146;11.502;2022-09-13T04:32:48;3.75;;;2.50;;
24173;SDS011;12324;48.146;11.502;2022-09-13T04:35:15;4.57;;;2.05;;
24173;SDS011;12324;48.146;11.502;2022-09-13T04:37:43;5.38;;;1.98;;
24173;SDS011;12324;48.146;11.502;2022-09-13T04:40:09;3.78;;;2.00;;
24173;SDS011;12324;48.146;11.502;2022-09-13T04:42:37;4.10;;;1.80;;
24173;SDS011;12324;48.146;11.502;2022-09-13T04:45:04;4.10;;;1.98;;
24173;SDS011;12324;48.146;11.502;2022-09-13T04:47:31;2.60;;;1.90;;
24173;SDS011;12324;48.146;11.502;2022-09-13T04:49:58;2.83;;;1.95;;
24173;SDS011;12324;48.146;11.502;2022-09-13T04:52:24;4.40;;;2.22;;
24173;SDS011;12324;48.146;11.502;2022-09-13T04:54:51;5.63;;;2.60;;
24173;SDS011;12324;48.146;11.502;2022-09-13T04:57:18;3.75;;;2.25;;
24173;SDS011;12324;48.146;11.502;2022-09-13T04:59:44;3.60;;;1.83;;
24173;SDS011;12324;48.146;11.502;2022-09-13T05:02:11;3.75;;;2.10;;
24173;SDS011;12324;48.146;11.502;2022-09-13T05:04:38;4.00;;;2.53;;
24173;SDS011;12324;48.146;11.502;2022-09-13T05:07:04;2.78;;;1.85;;
24173;SDS011;12324;48.146;11.502;2022-09-13T05:09:31;5.70;;;2.05;;
24173;SDS011;12324;48.146;11.502;2022-09-13T05:11:58;3.75;;;2.30;;
24173;SDS011;12324;48.146;11.502;2022-09-13T05:14:25;2.53;;;1.95;;
24173;SDS011;12324;48.146;11.502;2022-09-13T05:16:51;2.97;;;1.92;;
24173;SDS011;12324;48.146;11.502;2022-09-13T05:19:18;5.22;;;2.40;;
24173;SDS011;12324;48.146;11.502;2022-09-13T05:21:45;3.22;;;2.17;;
24173;SDS011;12324;48.146;11.502;2022-09-13T05:24:11;3.45;;;2.30;;
24173;SDS011;12324;48.146;11.502;2022-09-13T05:26:38;5.70;;;2.25;;
24173;SDS011;12324;48.146;11.502;2022-09-13T05:29:04;7.47;;;2.40;;
24173;SDS011;12324;48.146;11.502;2022-09-13T05:31:32;3.88;;;2.28;;
24173;SDS011;12324;48.146;11.502;2022-09-13T05:34:03;4.72;;;2.08;;
24173;SDS011;12324;48.146;11.502;2022-09-13T05:36:31;4.93;;;2.28;;
24173;SDS011;12324;48.146;11.502;2022-09-13T05:38:59;2.83;;;1.77;;
24173;SDS011;12324;48.146;11.502;2022-09-13T05:41:46;5.75;;;2.72;;
24173;SDS011;12324;48.146;11.502;2022-09-13T05:44:13;6.57;;;2.42;;
24173;SDS011;12324;48.146;11.502;2022-09-13T05:46:40;8.00;;;2.33;;
24173;SDS011;12324;48.146;11.502;2022-09-13T05:49:10;2.85;;;1.67;;
24173;SDS011;12324;48.146;11.502;2022-09-13T05:51:37;3.75;;;2.03;;
24173;SDS011;12324;48.146;11.502;2022-09-13T05:54:04;5.35;;;2.05;;
24173;SDS011;12324;48.146;11.502;2022-09-13T05:56:31;5.25;;;2.22;;
24173;SDS011;12324;48.146;11.502;2022-09-13T05:58:57;4.43;;;2.25;;
24173;SDS011;12324;48.146;11.502;2022-09-13T06:01:25;5.10;;;2.03;;
24173;SDS011;12324;48.146;11.502;2022-09-13T06:03:54;3.10;;;1.88;;
24173;SDS011;12324;48.146;11.502;2022-09-13T06:06:22;3.22;;;1.75;;
24173;SDS011;12324;48.146;11.502;2022-09-13T06:08:53;6.72;;;2.83;;
24173;SDS011;12324;48.146;11.502;2022-09-13T06:11:21;4.60;;;2.17;;
24173;SDS011;12324;48.146;11.502;2022-09-13T06:13:48;4.50;;;1.92;;
24173;SDS011;12324;48.146;11.502;2022-09-13T06:16:15;5.53;;;1.90;;
24173;SDS011;12324;48.146;11.502;2022-09-13T06:18:42;3.00;;;1.50;;
24173;SDS011;12324;48.146;11.502;2022-09-13T06:21:17;3.08;;;1.58;;
24173;SDS011;12324;48.146;11.502;2022-09-13T06:23:45;3.63;;;1.60;;
24173;SDS011;12324;48.146;11.502;2022-09-13T06:26:13;7.25;;;2.08;;
24173;SDS011;12324;48.146;11.502;2022-09-13T06:28:41;2.75;;;1.65;;
24173;SDS011;12324;48.146;11.502;2022-09-13T06:31:09;1.20;;;1.10;;
24173;SDS011;12324;48.146;11.502;2022-09-13T06:33:37;3.83;;;1.55;;
24173;SDS011;12324;48.146;11.502;2022-09-13T06:36:06;2.55;;;1.52;;
24173;SDS011;12324;48.146;11.502;2022-09-13T06:38:33;2.90;;;1.30;;
24173;SDS011;12324;48.146;11.502;2022-09-13T06:41:08;2.05;;;1.17;;
24173;SDS011;12324;48.146;11.502;2022-09-13T06:43:35;9.02;;;1.52;;
24173;SDS011;12324;48.146;11.502;2022-09-13T06:46:07;1.55;;;1.30;;
24173;SDS011;12324;48.146;11.502;2022-09-13T06:48:35;2.10;;;1.48;;
24173;SDS011;12324;48.146;11.502;2022-09-13T06:51:04;4.22;;;1.15;;
24173;SDS011;12324;48.146;11.502;2022-09-13T06:53:32;2.83;;;1.27;;
24173;SDS011;12324;48.146;11.502;2022-09-13T06:56:00;1.13;;;1.02;;
24173;SDS011;12324;48.146;11.502;2022-09-13T06:58:28;2.25;;;1.52;;
24173;SDS011;12324;48.146;11.502;2022-09-13T07:03:44;3.53;;;1.55;;
24173;SDS011;12324;48.146;11.502;2022-09-13T07:06:12;1.73;;;1.45;;
24173;SDS011;12324;48.146;11.502;2022-09-13T07:08:44;1.83;;;1.30;;
24173;SDS011;12324;48.146;11.502;2022-09-13T07:11:12;2.20;;;1.33;;
24173;SDS011;12324;48.146;11.502;2022-09-13T07:13:40;4.13;;;1.58;;
24173;SDS011;12324;48.146;11.502;2022-09-13T07:16:08;2.17;;;1.30;;
24173;SDS011;12324;48.146;11.502;2022-09-13T07:18:35;2.55;;;1.42;;
24173;SDS011;12324;48.146;11.502;2022-09-13T07:21:04;1.58;;;1.20;;
24173;SDS011;12324;48.146;11.502;2022-09-13T07:23:32;2.05;;;1.15;;
24173;SDS011;12324;48.146;11.502;2022-09-13T07:25:59;2.13;;;1.42;;
24173;SDS011;12324;48.146;11.502;2022-09-13T07:28:28;1.80;;;0.93;;
24173;SDS011;12324;48.146;11.502;2022-09-13T07:31:04;1.23;;;1.10;;
24173;SDS011;12324;48.146;11.502;2022-09-13T07:33:32;2.70;;;1.30;;
24173;SDS011;12324;48.146;11.502;2022-09-13T07:35:59;3.17;;;1.60;;
24173;SDS011;12324;48.146;11.502;2022-09-13T07:38:28;4.60;;;1.33;;
24173;SDS011;12324;48.146;11.502;2022-09-13T07:40:55;2.15;;;1.50;;
24173;SDS011;12324;48.146;11.502;2022-09-13T07:43:24;2.45;;;1.45;;
24173;SDS011;12324;48.146;11.502;2022-09-13T07:45:57;2.25;;;1.30;;
24173;SDS011;12324;48.146;11.502;2022-09-13T07:48:25;1.60;;;1.27;;
24173;SDS011;12324;48.146;11.502;2022-09-13T07:51:05;3.55;;;1.23;;
24173;SDS011;12324;48.146;11.502;2022-09-13T07:56:00;2.65;;;1.10;;
24173;SDS011;12324;48.146;11.502;2022-09-13T07:58:27;1.52;;;1.30;;
24173;SDS011;12324;48.146;11.502;2022-09-13T08:00:57;2.10;;;1.10;;
24173;SDS011;12324;48.146;11.502;2022-09-13T08:03:26;2.00;;;1.33;;
24173;SDS011;12324;48.146;11.502;2022-09-13T08:05:55;0.90;;;0.85;;
24173;SDS011;12324;48.146;11.502;2022-09-13T08:08:22;1.73;;;1.33;;
24173;SDS011;12324;48.146;11.502;2022-09-13T08:10:49;1.25;;;1.02;;
24173;SDS011;12324;48.146;11.502;2022-09-13T08:13:16;0.93;;;0.90;;
24173;SDS011;12324;48.146;11.502;2022-09-13T08:15:43;1.50;;;1.05;;
24173;SDS011;12324;48.146;11.502;2022-09-13T08:18:10;3.13;;;1.30;;
24173;SDS011;12324;48.146;11.502;2022-09-13T08:20:38;2.42;;;1.20;;
24173;SDS011;12324;48.146;11.502;2022-09-13T08:23:05;1.00;;;0.90;;
24173;SDS011;12324;48.146;11.502;2022-09-13T08:25:33;1.48;;;1.20;;
24173;SDS011;12324;48.146;11.502;2022-09-13T08:28:01;1.90;;;1.30;;
24173;SDS011;12324;48.146;11.502;2022-09-13T08:30:28;1.80;;;1.40;;
24173;SDS011;12324;48.146;11.502;2022-09-13T08:32:58;1.92;;;1.27;;
24173;SDS011;12324;48.146;11.502;2022-09-13T08:35:27;4.15;;;1.23;;
24173;SDS011;12324;48.146;11.502;2022-09-13T08:37:55;3.38;;;1.30;;
24173;SDS011;12324;48.146;11.502;2022-09-13T08:40:23;2.33;;;1.50;;
24173;SDS011;12324;48.146;11.502;2022-09-13T08:45:30;0.90;;;0.90;;
24173;SDS011;12324;48.146;11.502;2022-09-13T08:48:01;2.00;;;1.20;;
24173;SDS011;12324;48.146;11.502;2022-09-13T08:50:30;2.08;;;1.38;;
24173;SDS011;12324;48.146;11.502;2022-09-13T08:58:08;2.60;;;1.23;;
24173;SDS011;12324;48.146;11.502;2022-09-13T09:00:40;1.70;;;1.38;;
24173;SDS011;12324;48.146;11.502;2022-09-13T09:03:17;2.08;;;1.42;;
24173;SDS011;12324;48.146;11.502;2022-09-13T09:05:48;1.48;;;1.20;;
24173;SDS011;12324;48.146;11.502;2022-09-13T09:08:50;1.00;;;0.90;;
24173;SDS011;12324;48.146;11.502;2022-09-13T09:12:10;2.40;;;1.25;;
24173;SDS011;12324;48.146;11.502;2022-09-13T09:16:43;2.38;;;1.10;;
24173;SDS011;12324;48.146;11.502;2022-09-13T09:19:14;2.05;;;1.33;;
24173;SDS011;12324;48.146;11.502;2022-09-13T09:21:42;1.08;;;0.85;;
24173;SDS011;12324;48.146;11.502;2022-09-13T09:24:14;2.67;;;1.27;;
24173;SDS011;12324;48.146;11.502;2022-09-13T09:26:42;3.53;;;1.35;;
24173;SDS011;12324;48.146;11.502;2022-09-13T09:29:14;3.72;;;1.30;;
24173;SDS011;12324;48.146;11.502;2022-09-13T09:37:21;1.50;;;1.15;;
24173;SDS011;12324;48.146;11.502;2022-09-13T09:39:51;3.47;;;1.30;;
24173;SDS011;12324;48.146;11.502;2022-09-13T09:42:23;2.10;;;1.30;;
24173;SDS011;12324;48.146;11.502;2022-09-13T09:44:52;2.00;;;0.93;;
24173;SDS011;12324;48.146;11.502;2022-09-13T09:47:21;2.50;;;1.13;;
24173;SDS011;12324;48.146;11.502;2022-09-13T09:52:39;6.03;;;1.48;;
24173;SDS011;12324;48.146;11.502;2022-09-13T09:55:13;1.45;;;1.13;;
24173;SDS011;12324;48.146;11.502;2022-09-13T10:00:17;2.88;;;1.40;;
24173;SDS011;12324;48.146;11.502;2022-09-13T10:02:45;1.58;;;1.20;;
24173;SDS011;12324;48.146;11.502;2022-09-13T10:05:13;1.23;;;1.13;;
24173;SDS011;12324;48.146;11.502;2022-09-13T10:07:48;1.95;;;1.17;;
24173;SDS011;12324;48.146;11.502;2022-09-13T10:12:48;1.58;;;1.25;;
24173;SDS011;12324;48.146;11.502;2022-09-13T10:15:17;2.85;;;1.45;;
24173;SDS011;12324;48.146;11.502;2022-09-13T10:18:02;7.40;;;1.35;;
24173;SDS011;12324;48.146;11.502;2022-09-13T10:21:01;2.25;;;1.17;;
24173;SDS011;12324;48.146;11.502;2022-09-13T10:23:29;1.65;;;1.30;;
24173;SDS011;12324;48.146;11.502;2022-09-13T10:26:06;1.48;;;1.02;;
24173;SDS011;12324;48.146;11.502;2022-09-13T10:28:35;2.95;;;1.52;;
24173;SDS011;12324;48.146;11.502;2022-09-13T10:31:09;2.17;;;1.20;;
24173;SDS011;12324;48.146;11.502;2022-09-13T10:36:16;14.13;;;8.87;;
24173;SDS011;12324;48.146;11.502;2022-09-13T10:39:05;23.05;;;12.40;;
24173;SDS011;12324;48.146;11.502;2022-09-13T10:41:33;7.93;;;3.10;;
24173;SDS011;12324;48.146;11.502;2022-09-13T10:44:02;3.70;;;1.50;;
24173;SDS011;12324;48.146;11.502;2022-09-13T10:46:35;2.38;;;1.33;;
24173;SDS011;12324;48.146;11.502;2022-09-13T10:49:04;1.85;;;1.13;;
24173;SDS011;12324;48.146;11.502;2022-09-13T10:51:33;1.50;;;1.13;;
24173;SDS011;12324;48.146;11.502;2022-09-13T10:56:40;2.08;;;1.15;;
24173;SDS011;12324;48.146;11.502;2022-09-13T10:59:13;1.58;;;1.17;;
24173;SDS011;12324;48.146;11.502;2022-09-13T11:10:01;8.95;;;3.63;;
24173;SDS011;12324;48.146;11.502;2022-09-13T11:12:37;4.45;;;2.95;;
24173;SDS011;12324;48.146;11.502;2022-09-13T11:15:23;1.33;;;1.23;;
24173;SDS011;12324;48.146;11.502;2022-09-13T11:29:10;3.58;;;2.70;;
24173;SDS011;12324;48.146;11.502;2022-09-13T11:56:30;1.35;;;1.25;;
24173;SDS011;12324;48.146;11.502;2022-09-13T12:02:26;1.13;;;1.02;;
24173;SDS011;12324;48.146;11.502;2022-09-13T12:05:15;2.10;;;0.95;;
24173;SDS011;12324;48.146;11.502;2022-09-13T12:08:11;8.48;;;1.55;;
24173;SDS011;12324;48.146;11.502;2022-09-13T12:10:45;2.38;;;1.27;;
24173;SDS011;12324;48.146;11.502;2022-09-13T12:15:52;2.30;;;1.08;;
24173;SDS011;12324;48.146;11.502;2022-09-13T12:18:25;1.58;;;1.13;;
24173;SDS011;12324;48.146;11.502;2022-09-13T12:21:02;1.00;;;0.90;;
24173;SDS011;12324;48.146;11.502;2022-09-13T12:26:29;2.65;;;1.17;;
24173;SDS011;12324;48.146;11.502;2022-09-13T12:31:36;2.60;;;1.20;;
24173;SDS011;12324;48.146;11.502;2022-09-13T12:34:04;1.02;;;0.93;;
24173;SDS011;12324;48.146;11.502;2022-09-13T12:36:36;3.30;;;1.20;;
24173;SDS011;12324;48.146;11.502;2022-09-13T12:45:22;2.25;;;1.30;;
24173;SDS011;12324;48.146;11.502;2022-09-13T13:05:29;3.70;;;1.10;;
24173;SDS011;12324;48.146;11.502;2022-09-13T13:08:01;2.03;;;1.20;;
24173;SDS011;12324;48.146;11.502;2022-09-13T13:10:34;2.15;;;1.10;;
24173;SDS011;12324;48.146;11.502;2022-09-13T13:13:12;1.00;;;0.90;;
24173;SDS011;12324;48.146;11.502;2022-09-13T13:18:28;0.98;;;0.93;;
24173;SDS011;12324;48.146;11.502;2022-09-13T13:23:32;1.63;;;0.90;;
24173;SDS011;12324;48.146;11.502;2022-09-13T13:33:50;2.63;;;0.95;;
24173;SDS011;12324;48.146;11.502;2022-09-13T13:39:12;1.63;;;1.00;;
24173;SDS011;12324;48.146;11.502;2022-09-13T13:41:59;1.10;;;1.00;;
24173;SDS011;12324;48.146;11.502;2022-09-13T14:02:30;3.38;;;1.10;;
24173;SDS011;12324;48.146;11.502;2022-09-13T14:07:42;1.05;;;0.98;;
24173;SDS011;12324;48.146;11.502;2022-09-13T14:10:22;2.83;;;1.02;;
24173;SDS011;12324;48.146;11.502;2022-09-13T14:12:57;2.25;;;1.20;;
24173;SDS011;12324;48.146;11.502;2022-09-13T14:15:31;0.90;;;0.90;;
24173;SDS011;12324;48.146;11.502;2022-09-13T14:18:12;2.58;;;1.30;;
24173;SDS011;12324;48.146;11.502;2022-09-13T14:21:03;0.70;;;0.70;;
24173;SDS011;12324;48.146;11.502;2022-09-13T14:23:43;0.88;;;0.88;;
24173;SDS011;12324;48.146;11.502;2022-09-13T14:26:10;1.08;;;0.90;;
24173;SDS011;12324;48.146;11.502;2022-09-13T14:28:37;1.17;;;0.65;;
24173;SDS011;12324;48.146;11.502;2022-09-13T14:31:04;0.98;;;0.90;;
24173;SDS011;12324;48.146;11.502;2022-09-13T14:33:32;2.38;;;1.13;;
24173;SDS011;12324;48.146;11.502;2022-09-13T14:36:05;3.38;;;0.77;;
24173;SDS011;12324;48.146;11.502;2022-09-13T14:38:45;1.13;;;0.75;;
24173;SDS011;12324;48.146;11.502;2022-09-13T14:41:20;4.68;;;1.17;;
24173;SDS011;12324;48.146;11.502;2022-09-13T14:43:48;3.25;;;1.40;;
24173;SDS011;12324;48.146;11.502;2022-09-13T14:46:17;0.70;;;0.70;;
24173;SDS011;12324;48.146;11.502;2022-09-13T14:49:06;1.23;;;1.00;;
24173;SDS011;12324;48.146;11.502;2022-09-13T14:51:57;1.10;;;1.00;;
24173;SDS011;12324;48.146;11.502;2022-09-13T14:54:30;3.33;;;1.05;;
24173;SDS011;12324;48.146;11.502;2022-09-13T14:57:00;1.25;;;1.00;;
24173;SDS011;12324;48.146;11.502;2022-09-13T15:01:54;1.83;;;1.10;;
24173;SDS011;12324;48.146;11.502;2022-09-13T15:04:28;1.92;;;1.33;;
24173;SDS011;12324;48.146;11.502;2022-09-13T15:09:40;1.70;;;0.98;;
24173;SDS011;12324;48.146;11.502;2022-09-13T15:12:20;2.65;;;1.48;;
24173;SDS011;12324;48.146;11.502;2022-09-13T15:14:48;1.23;;;0.90;;
24173;SDS011;12324;48.146;11.502;2022-09-13T15:17:51;1.20;;;0.82;;
24173;SDS011;12324;48.146;11.502;2022-09-13T15:20:19;2.30;;;1.05;;
24173;SDS011;12324;48.146;11.502;2022-09-13T15:22:47;1.20;;;1.02;;
24173;SDS011;12324;48.146;11.502;2022-09-13T15:25:20;2.08;;;1.00;;
24173;SDS011;12324;48.146;11.502;2022-09-13T15:27:51;1.42;;;0.85;;
24173;SDS011;12324;48.146;11.502;2022-09-13T15:32:47;2.45;;;1.38;;
24173;SDS011;12324;48.146;11.502;2022-09-13T15:37:58;2.85;;;1.20;;
24173;SDS011;12324;48.146;11.502;2022-09-13T15:40:27;3.85;;;1.10;;
24173;SDS011;12324;48.146;11.502;2022-09-13T15:42:55;2.88;;;1.20;;
24173;SDS011;12324;48.146;11.502;2022-09-13T15:45:22;2.75;;;1.13;;
24173;SDS011;12324;48.146;11.502;2022-09-13T15:47:50;3.13;;;1.73;;
24173;SDS011;12324;48.146;11.502;2022-09-13T15:50:18;8.70;;;2.30;;
24173;SDS011;12324;48.146;11.502;2022-09-13T15:52:45;3.70;;;1.58;;
24173;SDS011;12324;48.146;11.502;2022-09-13T15:55:12;2.03;;;1.27;;
24173;SDS011;12324;48.146;11.502;2022-09-13T15:57:39;3.80;;;1.65;;
24173;SDS011;12324;48.146;11.502;2022-09-13T16:00:13;2.15;;;1.33;;
24173;SDS011;12324;48.146;11.502;2022-09-13T16:02:44;1.08;;;0.98;;
24173;SDS011;12324;48.146;11.502;2022-09-13T16:05:11;7.80;;;2.17;;
24173;SDS011;12324;48.146;11.502;2022-09-13T16:07:38;7.03;;;3.17;;
24173;SDS011;12324;48.146;11.502;2022-09-13T16:10:10;3.35;;;1.70;;
24173;SDS011;12324;48.146;11.502;2022-09-13T16:12:40;2.67;;;1.33;;
24173;SDS011;12324;48.146;11.502;2022-09-13T16:15:08;3.50;;;1.65;;
24173;SDS011;12324;48.146;11.502;2022-09-13T16:17:35;4.55;;;1.52;;
24173;SDS011;12324;48.146;11.502;2022-09-13T16:20:02;8.27;;;1.98;;
24173;SDS011;12324;48.146;11.502;2022-09-13T16:22:29;4.65;;;2.00;;
24173;SDS011;12324;48.146;11.502;2022-09-13T16:24:56;1.92;;;1.40;;
24173;SDS011;12324;48.146;11.502;2022-09-13T16:27:22;2.75;;;1.40;;
24173;SDS011;12324;48.146;11.502;2022-09-13T16:29:55;2.72;;;1.27;;
24173;SDS011;12324;48.146;11.502;2022-09-13T16:32:22;3.20;;;1.65;;
24173;SDS011;12324;48.146;11.502;2022-09-13T16:34:49;5.30;;;1.90;;
24173;SDS011;12324;48.146;11.502;2022-09-13T16:37:16;2.85;;;1.85;;
24173;SDS011;12324;48.146;11.502;2022-09-13T16:39:44;3.20;;;1.58;;
24173;SDS011;12324;48.146;11.502;2022-09-13T16:42:11;2.78;;;1.35;;
24173;SDS011;12324;48.146;11.502;2022-09-13T16:44:40;2.92;;;1.42;;
24173;SDS011;12324;48.146;11.502;2022-09-13T16:47:07;2.03;;;1.30;;
24173;SDS011;12324;48.146;11.502;2022-09-13T16:49:34;2.42;;;1.30;;
24173;SDS011;12324;48.146;11.502;2022-09-13T16:52:01;3.17;;;1.90;;
24173;SDS011;12324;48.146;11.502;2022-09-13T16:54:28;2.47;;;1.60;;
24173;SDS011;12324;48.146;11.502;2022-09-13T16:56:56;5.90;;;2.67;;
24173;SDS011;12324;48.146;11.502;2022-09-13T16:59:23;4.63;;;2.20;;
24173;SDS011;12324;48.146;11.502;2022-09-13T17:01:50;3.13;;;2.00;;
24173;SDS011;12324;48.146;11.502;2022-09-13T17:04:17;4.30;;;1.83;;
24173;SDS011;12324;48.146;11.502;2022-09-13T17:06:44;5.38;;;2.25;;
24173;SDS011;12324;48.146;11.502;2022-09-13T17:09:11;6.15;;;2.50;;
24173;SDS011;12324;48.146;11.502;2022-09-13T17:11:40;5.53;;;2.72;;
24173;SDS011;12324;48.146;11.502;2022-09-13T17:14:09;6.05;;;2.10;;
24173;SDS011;12324;48.146;11.502;2022-09-13T17:16:40;7.80;;;3.35;;
24173;SDS011;12324;48.146;11.502;2022-09-13T17:19:18;3.97;;;2.20;;
24173;SDS011;12324;48.146;11.502;2022-09-13T17:21:46;6.50;;;2.63;;
24173;SDS011;12324;48.146;11.502;2022-09-13T17:24:13;9.38;;;2.58;;
24173;SDS011;12324;48.146;11.502;2022-09-13T17:26:40;4.97;;;2.03;;
24173;SDS011;12324;48.146;11.502;2022-09-13T17:29:09;3.05;;;2.05;;
24173;SDS011;12324;48.146;11.502;2022-09-13T17:31:37;12.18;;;2.58;;
24173;SDS011;12324;48.146;11.502;2022-09-13T17:34:03;4.78;;;2.38;;
24173;SDS011;12324;48.146;11.502;2022-09-13T17:36:30;4.65;;;2.05;;
24173;SDS011;12324;48.146;11.502;2022-09-13T17:38:57;4.47;;;2.00;;
24173;SDS011;12324;48.146;11.502;2022-09-13T17:41:25;4.70;;;2.20;;
24173;SDS011;12324;48.146;11.502;2022-09-13T17:43:52;4.18;;;2.20;;
24173;SDS011;12324;48.146;11.502;2022-09-13T17:46:20;2.30;;;1.33;;
24173;SDS011;12324;48.146;11.502;2022-09-13T17:48:48;5.78;;;1.92;;
24173;SDS011;12324;48.146;11.502;2022-09-13T17:51:18;5.13;;;2.28;;
24173;SDS011;12324;48.146;11.502;2022-09-13T17:53:50;5.00;;;2.08;;
24173;SDS011;12324;48.146;11.502;2022-09-13T17:56:18;3.83;;;2.15;;
24173;SDS011;12324;48.146;11.502;2022-09-13T17:58:55;5.05;;;2.33;;
24173;SDS011;12324;48.146;11.502;2022-09-13T18:01:31;5.75;;;2.40;;
24173;SDS011;12324;48.146;11.502;2022-09-13T18:03:59;5.32;;;2.17;;
24173;SDS011;12324;48.146;11.502;2022-09-13T18:06:25;7.38;;;2.97;;
24173;SDS011;12324;48.146;11.502;2022-09-13T18:08:52;5.93;;;3.05;;
24173;SDS011;12324;48.146;11.502;2022-09-13T18:11:20;6.43;;;2.15;;
24173;SDS011;12324;48.146;11.502;2022-09-13T18:13:47;3.85;;;2.13;;
24173;SDS011;12324;48.146;11.502;2022-09-13T18:16:16;4.90;;;2.00;;
24173;SDS011;12324;48.146;11.502;2022-09-13T18:18:47;7.03;;;2.40;;
24173;SDS011;12324;48.146;11.502;2022-09-13T18:21:15;5.32;;;2.53;;
24173;SDS011;12324;48.146;11.502;2022-09-13T18:23:44;4.18;;;2.45;;
24173;SDS011;12324;48.146;11.502;2022-09-13T18:26:13;6.40;;;2.40;;
24173;SDS011;12324;48.146;11.502;2022-09-13T18:28:41;4.20;;;2.00;;
24173;SDS011;12324;48.146;11.502;2022-09-13T18:31:10;3.63;;;2.10;;